Capt. Ted — WDD6210 — position and weather

sailwx.info

Track history (hours):
 
Tides and Currents Weather Stations Pressure Air Temp Water Temp Dewpoint Dewpoint Depression Visibility Wind Speed Wind Dir Waves Ship Positions

Capt. Ted

Owner: Salisbury Towing Corporation, Havre de Grace, MD. More information available from US FCC via Universal Licensing System and Coast Guard Vessel Documentation Center.

Last reported at 2016-May-04 10:11 UTC. Time now 2016-May-04 23:10 UTC.
Position N 38°50' W 076°26'.

Length 32 m; draft 2.8 m.

Type: Tug. MMSI: 367169710.

Date/timePositionNaut miles runAvg speedWind from/ knotsBaromVisibWave heightAir tempDewpointWater temp
2016-May-04 10:11N 38°50' W 076°26'5 7.3
2016-May-04 09:26N 38°55' W 076°24'6 7.0
2016-May-04 08:33N 39°01' W 076°22'27 6.8
2016-May-04 04:33N 39°24' W 076°04'6 6.1
2016-May-04 03:33N 39°30' W 076°05'4 4.3
2016-May-04 02:33N 39°34' W 076°06'3 2.6
2016-May-04 01:33N 39°32' W 076°05'5 5.1
2016-May-04 00:33N 39°27' W 076°02'6 5.6
2016-May-03 23:33N 39°23' W 076°07'7 6.4
2016-May-03 22:32N 39°18' W 076°13'6 6.3
2016-May-03 21:31N 39°14' W 076°19'6 6.3
2016-May-03 20:32N 39°11' W 076°26'6 6.0
2016-May-03 19:32N 39°14' W 076°33'3 2.8
2016-May-03 18:33N 39°15' W 076°36'0 0.3
2016-May-03 17:33N 39°15' W 076°36'2 2.0
2016-May-03 16:33N 39°14' W 076°34'0 0.0
2016-May-03 15:33N 39°14' W 076°34'1 0.8
2016-May-03 14:33N 39°14' W 076°33'2 2.1
2016-May-03 13:33N 39°15' W 076°36'1 0.8
2016-May-03 12:33N 39°15' W 076°36'1 1.5
2016-May-03 11:33N 39°15' W 076°34'7 7.0
2016-May-03 10:33N 39°11' W 076°27'7 5.8
2016-May-03 09:25N 39°05' W 076°23'5 6.3
2016-May-03 08:33N 39°10' W 076°25'6 6.1
2016-May-03 07:33N 39°13' W 076°32'4 3.5
2016-May-03 06:33N 39°15' W 076°35'5 5.0
2016-May-03 05:33N 39°12' W 076°31'5 4.8
2016-May-03 04:33N 39°12' W 076°25'18 5.4
2016-May-03 01:10N 39°23' W 076°06'3 5.7
2016-May-03 00:33N 39°25' W 076°02'5 4.7
2016-May-02 23:33N 39°29' W 076°05'3 3.4
2016-May-02 22:33N 39°33' W 076°04'2 0.7
2016-May-02 19:26N 39°34' W 076°06'0 0.3
2016-May-02 18:33N 39°34' W 076°06'0 0.2
2016-May-02 17:32N 39°34' W 076°06'3 2.9
2016-May-02 16:33N 39°32' W 076°05'7 7.2
2016-May-02 15:33N 39°25' W 076°03'7 7.3
2016-May-02 14:33N 39°21' W 076°11'7 6.9
2016-May-02 13:33N 39°14' W 076°14'9 7.4
2016-May-02 12:21N 39°07' W 076°20'6 7.8
2016-May-02 11:31N 39°00' W 076°23'17 8.1
2016-May-02 09:28N 38°44' W 076°27'7 7.9
2016-May-02 08:33N 38°37' W 076°27'40 1.5
2016-May-01 05:29N 37°58' W 076°17'7 7.5
2016-May-01 04:33N 38°02' W 076°24'8 7.5
2016-May-01 03:33N 38°06' W 076°32'1 0.0
2016-Apr-30 06:32N 38°06' W 076°31'7 7.0
2016-Apr-30 05:33N 38°02' W 076°24'  
2016-Apr-27 05:31N 38°50' W 076°26'8 6.4
2016-Apr-27 04:19N 38°58' W 076°24'5 6.1
2016-Apr-27 03:31N 39°02' W 076°22'5 5.6
2016-Apr-27 02:33N 39°07' W 076°20'5 5.4
2016-Apr-27 01:33N 39°12' W 076°16'7 0.2
2016-Apr-25 20:31N 39°11' W 076°25'7 6.8
2016-Apr-25 19:33N 39°13' W 076°33'1 0.5
2016-Apr-25 18:33N 39°14' W 076°34'0 0.0
2016-Apr-25 17:33N 39°14' W 076°34'2 2.2
2016-Apr-25 16:33N 39°13' W 076°31'16 7.8
2016-Apr-25 14:33N 38°58' W 076°23'47 7.8
2016-Apr-25 08:32N 38°13' W 076°05'14 6.8
2016-Apr-25 06:24N 38°16' W 075°47'4 4.7
2016-Apr-25 05:33N 38°19' W 075°44'4 3.6
2016-Apr-25 04:33N 38°20' W 075°40'47 3.3
2016-Apr-24 14:32N 38°50' W 076°26'8 7.3
2016-Apr-24 13:29N 38°58' W 076°24'9 6.6
2016-Apr-24 12:07N 39°06' W 076°20'4 6.2
2016-Apr-24 11:28N 39°10' W 076°18'  
Track history (hours):
 
Tides and Currents Weather Stations Pressure Air Temp Water Temp Dewpoint Dewpoint Depression Visibility Wind Speed Wind Dir Waves Ship Positions

Capt. Ted

Owner: Salisbury Towing Corporation, Havre de Grace, MD. More information available from US FCC via Universal Licensing System and Coast Guard Vessel Documentation Center.

Last reported at 2016-May-04 10:11 UTC. Time now 2016-May-04 23:10 UTC.
Position N 38°50' W 076°26'.

Length 32 m; draft 2.8 m.

Type: Tug. MMSI: 367169710.

Date/timePositionNaut miles runAvg speedWind from/ knotsBaromVisibWave heightAir tempDewpointWater temp
2016-May-04 10:11N 38°50' W 076°26'5 7.3
2016-May-04 09:26N 38°55' W 076°24'6 7.0
2016-May-04 08:33N 39°01' W 076°22'27 6.8
2016-May-04 04:33N 39°24' W 076°04'6 6.1
2016-May-04 03:33N 39°30' W 076°05'4 4.3
2016-May-04 02:33N 39°34' W 076°06'3 2.6
2016-May-04 01:33N 39°32' W 076°05'5 5.1
2016-May-04 00:33N 39°27' W 076°02'6 5.6
2016-May-03 23:33N 39°23' W 076°07'7 6.4
2016-May-03 22:32N 39°18' W 076°13'6 6.3
2016-May-03 21:31N 39°14' W 076°19'6 6.3
2016-May-03 20:32N 39°11' W 076°26'6 6.0
2016-May-03 19:32N 39°14' W 076°33'3 2.8
2016-May-03 18:33N 39°15' W 076°36'0 0.3
2016-May-03 17:33N 39°15' W 076°36'2 2.0
2016-May-03 16:33N 39°14' W 076°34'0 0.0
2016-May-03 15:33N 39°14' W 076°34'1 0.8
2016-May-03 14:33N 39°14' W 076°33'2 2.1
2016-May-03 13:33N 39°15' W 076°36'1 0.8
2016-May-03 12:33N 39°15' W 076°36'1 1.5
2016-May-03 11:33N 39°15' W 076°34'7 7.0
2016-May-03 10:33N 39°11' W 076°27'7 5.8
2016-May-03 09:25N 39°05' W 076°23'5 6.3
2016-May-03 08:33N 39°10' W 076°25'6 6.1
2016-May-03 07:33N 39°13' W 076°32'4 3.5
2016-May-03 06:33N 39°15' W 076°35'5 5.0
2016-May-03 05:33N 39°12' W 076°31'5 4.8
2016-May-03 04:33N 39°12' W 076°25'18 5.4
2016-May-03 01:10N 39°23' W 076°06'3 5.7
2016-May-03 00:33N 39°25' W 076°02'5 4.7
2016-May-02 23:33N 39°29' W 076°05'3 3.4
2016-May-02 22:33N 39°33' W 076°04'2 0.7
2016-May-02 19:26N 39°34' W 076°06'0 0.3
2016-May-02 18:33N 39°34' W 076°06'0 0.2
2016-May-02 17:32N 39°34' W 076°06'3 2.9
2016-May-02 16:33N 39°32' W 076°05'7 7.2
2016-May-02 15:33N 39°25' W 076°03'7 7.3
2016-May-02 14:33N 39°21' W 076°11'7 6.9
2016-May-02 13:33N 39°14' W 076°14'9 7.4
2016-May-02 12:21N 39°07' W 076°20'6 7.8
2016-May-02 11:31N 39°00' W 076°23'17 8.1
2016-May-02 09:28N 38°44' W 076°27'7 7.9
2016-May-02 08:33N 38°37' W 076°27'40 1.5
2016-May-01 05:29N 37°58' W 076°17'7 7.5
2016-May-01 04:33N 38°02' W 076°24'8 7.5
2016-May-01 03:33N 38°06' W 076°32'1 0.0
2016-Apr-30 06:32N 38°06' W 076°31'7 7.0
2016-Apr-30 05:33N 38°02' W 076°24'  
2016-Apr-27 05:31N 38°50' W 076°26'8 6.4
2016-Apr-27 04:19N 38°58' W 076°24'5 6.1
2016-Apr-27 03:31N 39°02' W 076°22'5 5.6
2016-Apr-27 02:33N 39°07' W 076°20'5 5.4
2016-Apr-27 01:33N 39°12' W 076°16'7 0.2
2016-Apr-25 20:31N 39°11' W 076°25'7 6.8
2016-Apr-25 19:33N 39°13' W 076°33'1 0.5
2016-Apr-25 18:33N 39°14' W 076°34'0 0.0
2016-Apr-25 17:33N 39°14' W 076°34'2 2.2
2016-Apr-25 16:33N 39°13' W 076°31'16 7.8
2016-Apr-25 14:33N 38°58' W 076°23'47 7.8
2016-Apr-25 08:32N 38°13' W 076°05'14 6.8
2016-Apr-25 06:24N 38°16' W 075°47'4 4.7
2016-Apr-25 05:33N 38°19' W 075°44'4 3.6
2016-Apr-25 04:33N 38°20' W 075°40'47 3.3
2016-Apr-24 14:32N 38°50' W 076°26'8 7.3
2016-Apr-24 13:29N 38°58' W 076°24'9 6.6
2016-Apr-24 12:07N 39°06' W 076°20'4 6.2
2016-Apr-24 11:28N 39°10' W 076°18'  

Dump ship's entire track history